createdAt,value
2023-05-08T00:02:22.600Z,94093.28
2023-05-08T00:05:26.388Z,94092.91
2023-05-08T00:08:30.019Z,94100.78
2023-05-08T00:11:33.631Z,94099.91
2023-05-08T00:14:37.611Z,94103.63
2023-05-08T00:17:42.303Z,94092.38
2023-05-08T00:20:45.688Z,94093.16
2023-05-08T00:23:49.426Z,94093.25
2023-05-08T00:26:53.096Z,94088.44
2023-05-08T00:29:57.146Z,94081.00
2023-05-08T00:33:01.341Z,94078.88
2023-05-08T00:36:06.623Z,94074.84
2023-05-08T00:39:10.860Z,94077.34
2023-05-08T00:42:14.826Z,94082.28
2023-05-08T00:45:18.933Z,94074.13
2023-05-08T00:48:24.241Z,94076.97
2023-05-08T00:51:29.109Z,94073.91
2023-05-08T00:54:32.687Z,94078.50
2023-05-08T00:57:37.472Z,94071.00
2023-05-08T01:00:44.725Z,94079.06
2023-05-08T01:03:48.560Z,94067.47
2023-05-08T01:06:52.483Z,94069.72
2023-05-08T01:09:56.583Z,94068.25
2023-05-08T01:13:13.373Z,94064.19
2023-05-08T01:16:24.281Z,94060.59
2023-05-08T01:20:06.664Z,94060.41
2023-05-08T01:23:38.231Z,94062.34
2023-05-08T01:27:15.919Z,94063.19
2023-05-08T01:30:25.247Z,94056.44
2023-05-08T01:34:04.674Z,94064.09
2023-05-08T01:37:18.204Z,94049.84
2023-05-08T01:40:36.316Z,94051.13
2023-05-08T01:43:45.404Z,94043.06
2023-05-08T01:46:51.720Z,94053.75
2023-05-08T01:50:30.370Z,94049.53
2023-05-08T01:53:39.939Z,94053.00
2023-05-08T01:56:46.240Z,94052.28
2023-05-08T01:59:52.643Z,94058.03
2023-05-08T02:02:58.707Z,94063.59
2023-05-08T02:06:03.752Z,94054.75
2023-05-08T02:09:10.440Z,94070.94
2023-05-08T02:12:15.191Z,94051.38
2023-05-08T02:15:19.753Z,94055.06
2023-05-08T02:18:26.713Z,94047.72
2023-05-08T02:21:32.353Z,94051.78
2023-05-08T02:24:37.706Z,94052.44
2023-05-08T02:27:44.524Z,94044.31
2023-05-08T02:30:49.139Z,94037.56
2023-05-08T02:33:53.324Z,94037.50
2023-05-08T02:36:57.128Z,94039.59
2023-05-08T02:40:04.705Z,94022.00
2023-05-08T02:43:08.031Z,94023.56
2023-05-08T02:46:12.224Z,94017.44
2023-05-08T02:49:27.322Z,94022.63
2023-05-08T02:52:58.151Z,94012.44
2023-05-08T02:56:19.499Z,94007.47
2023-05-08T02:59:45.289Z,93999.81
2023-05-08T03:02:55.775Z,94013.84
2023-05-08T03:06:03.939Z,93998.47
2023-05-08T03:09:08.066Z,93995.94
2023-05-08T03:12:21.975Z,93984.25
2023-05-08T03:15:34.017Z,93983.75
2023-05-08T03:18:43.744Z,93982.56
2023-05-08T03:21:49.973Z,93989.28
2023-05-08T03:24:56.695Z,93973.34
2023-05-08T03:28:01.482Z,93955.66
2023-05-08T03:31:07.588Z,93976.16
2023-05-08T03:34:14.717Z,93962.09
2023-05-08T03:37:19.369Z,93963.28
2023-05-08T03:40:23.808Z,93959.34
2023-05-08T03:43:27.563Z,93941.88
2023-05-08T03:46:33.701Z,93936.88
2023-05-08T03:49:39.649Z,93935.56
2023-05-08T03:52:44.144Z,93933.78
2023-05-08T03:55:47.959Z,93925.03
2023-05-08T03:59:15.738Z,93919.56
2023-05-08T04:02:23.605Z,93913.06
2023-05-08T04:05:44.302Z,93906.22
2023-05-08T04:09:01.039Z,93909.13
2023-05-08T04:12:18.702Z,93903.88
2023-05-08T04:15:26.985Z,93905.50
2023-05-08T04:18:32.769Z,93900.34
2023-05-08T04:21:40.197Z,93885.94
2023-05-08T04:24:46.517Z,93888.00
2023-05-08T04:27:56.013Z,93886.03
2023-05-08T04:31:00.460Z,93880.47
2023-05-08T04:34:05.312Z,93884.41
2023-05-08T04:37:08.780Z,93865.41
2023-05-08T04:40:13.094Z,93866.97
2023-05-08T04:43:17.546Z,93860.31
2023-05-08T04:46:21.416Z,93847.38
2023-05-08T04:49:24.672Z,93844.88
2023-05-08T04:52:28.386Z,93843.72
2023-05-08T04:55:31.591Z,93836.81
2023-05-08T04:58:35.069Z,93827.66
2023-05-08T05:01:38.574Z,93827.75
2023-05-08T05:04:42.520Z,93820.00
2023-05-08T05:07:46.913Z,93808.69
2023-05-08T05:10:52.938Z,93815.44
2023-05-08T05:13:56.391Z,93810.91
2023-05-08T05:17:00.922Z,93795.09
2023-05-08T05:20:04.508Z,93794.59
2023-05-08T05:23:08.984Z,93790.66
2023-05-08T05:26:12.671Z,93785.22
2023-05-08T05:29:16.033Z,93778.78
2023-05-08T05:32:19.831Z,93785.41
2023-05-08T05:35:25.444Z,93784.44
2023-05-08T05:38:29.637Z,93768.84
2023-05-08T05:41:32.763Z,93776.25
2023-05-08T05:44:36.130Z,93778.41
2023-05-08T05:47:39.336Z,93777.72
2023-05-08T05:50:43.011Z,93770.28
2023-05-08T05:53:46.433Z,93750.03
2023-05-08T05:56:50.140Z,93757.41
2023-05-08T05:59:54.945Z,93754.78
2023-05-08T06:02:59.895Z,93758.28
2023-05-08T06:06:04.109Z,93748.75
2023-05-08T06:09:07.784Z,93750.56
2023-05-08T06:12:12.911Z,93737.88
2023-05-08T06:15:16.748Z,93744.53
2023-05-08T06:18:22.837Z,93734.16
2023-05-08T06:21:27.405Z,93731.63
2023-05-08T06:24:30.715Z,93728.53
2023-05-08T06:27:37.947Z,93727.41
2023-05-08T06:30:42.104Z,93720.06
2023-05-08T06:33:45.855Z,93713.88
2023-05-08T06:36:49.952Z,93709.81
2023-05-08T06:40:03.994Z,93699.06
2023-05-08T06:43:15.757Z,93692.00
2023-05-08T06:46:20.049Z,93680.84
2023-05-08T06:49:24.272Z,93672.00
2023-05-08T06:52:27.964Z,93685.88
2023-05-08T06:55:32.012Z,93679.03
2023-05-08T06:58:36.268Z,93678.56
2023-05-08T07:01:40.662Z,93678.66
2023-05-08T07:04:45.249Z,93677.34
2023-05-08T07:07:48.273Z,93675.09
2023-05-08T07:10:51.352Z,93667.59
2023-05-08T07:13:54.417Z,93677.44
2023-05-08T07:16:57.484Z,93661.59
2023-05-08T07:20:01.600Z,93655.28
2023-05-08T07:23:05.277Z,93660.31
2023-05-08T07:26:09.005Z,93660.78
2023-05-08T07:29:12.789Z,93661.84
2023-05-08T07:32:16.934Z,93664.44
2023-05-08T07:35:20.805Z,93656.56
2023-05-08T07:38:24.080Z,93641.28
2023-05-08T07:41:27.170Z,93629.53
2023-05-08T07:44:43.515Z,93643.75
2023-05-08T07:47:56.116Z,93630.53
2023-05-08T07:51:00.363Z,93640.84
2023-05-08T07:54:04.207Z,93646.00
2023-05-08T07:57:08.365Z,93626.53
2023-05-08T08:00:14.526Z,93622.78
2023-05-08T08:03:18.428Z,93625.50
2023-05-08T08:06:21.554Z,93628.59
2023-05-08T08:09:27.682Z,93625.44
2023-05-08T08:12:32.512Z,93616.22
2023-05-08T08:15:35.977Z,93611.22
2023-05-08T08:18:39.601Z,93597.19
2023-05-08T08:21:45.618Z,93593.88
2023-05-08T08:24:48.596Z,93589.59
2023-05-08T08:27:51.547Z,93598.22
2023-05-08T08:30:55.346Z,93591.16
2023-05-08T08:33:58.790Z,93584.00
2023-05-08T08:37:02.064Z,93591.38
2023-05-08T08:40:05.468Z,93598.66
2023-05-08T08:43:10.070Z,93581.03
2023-05-08T08:46:17.828Z,93582.69
2023-05-08T08:49:32.618Z,93577.81
2023-05-08T08:52:44.282Z,93575.75
2023-05-08T08:55:54.849Z,93576.31
2023-05-08T08:59:00.837Z,93573.81
2023-05-08T09:02:11.370Z,93561.84
2023-05-08T09:05:15.858Z,93577.00
2023-05-08T09:08:20.520Z,93571.00
2023-05-08T09:11:23.937Z,93573.94
2023-05-08T09:14:28.512Z,93563.53
2023-05-08T09:17:32.220Z,93555.06
2023-05-08T09:20:37.177Z,93558.91
2023-05-08T09:24:00.067Z,93554.94
2023-05-08T09:27:06.628Z,93553.78
2023-05-08T09:30:12.314Z,93556.53
2023-05-08T09:33:15.830Z,93555.41
2023-05-08T09:36:29.521Z,93546.03
2023-05-08T09:39:33.357Z,93539.81
2023-05-08T09:42:39.730Z,93550.78
2023-05-08T09:45:43.828Z,93546.41
2023-05-08T09:48:46.891Z,93544.75
2023-05-08T09:51:57.411Z,93554.19
2023-05-08T09:55:10.078Z,93546.00
2023-05-08T09:58:13.606Z,93540.50
2023-05-08T10:01:31.615Z,93548.84
2023-05-08T10:04:38.977Z,93541.34
2023-05-08T10:07:42.047Z,93539.81
2023-05-08T10:10:45.060Z,93543.94
2023-05-08T10:13:48.754Z,93542.72
2023-05-08T10:16:53.706Z,93541.78
2023-05-08T10:20:02.055Z,93542.78
2023-05-08T10:23:07.962Z,93537.38
2023-05-08T10:26:17.282Z,93535.34
2023-05-08T10:29:34.164Z,93534.16
2023-05-08T10:32:45.223Z,93535.53
2023-05-08T10:35:49.959Z,93527.72
2023-05-08T10:38:54.190Z,93533.41
2023-05-08T10:41:58.310Z,93528.84
2023-05-08T10:45:03.252Z,93534.78
2023-05-08T10:48:29.820Z,93532.50
2023-05-08T10:52:10.512Z,93533.81
2023-05-08T10:55:24.651Z,93530.59
2023-05-08T10:58:37.318Z,93542.53
2023-05-08T11:01:40.454Z,93534.63
2023-05-08T11:04:44.405Z,93532.97
2023-05-08T11:07:57.178Z,93531.41
2023-05-08T11:11:00.982Z,93539.78
2023-05-08T11:14:09.828Z,93535.69
2023-05-08T11:17:13.290Z,93533.13
2023-05-08T11:20:17.441Z,93541.25
2023-05-08T11:23:29.438Z,93543.50
2023-05-08T11:26:41.100Z,93540.66
2023-05-08T11:29:45.997Z,93547.72
2023-05-08T11:33:04.597Z,93549.44
2023-05-08T11:36:19.172Z,93550.47
2023-05-08T11:39:22.798Z,93558.09
2023-05-08T11:42:26.172Z,93555.13
2023-05-08T11:45:32.768Z,93565.41
2023-05-08T11:48:37.163Z,93562.03
2023-05-08T11:51:45.333Z,93566.31
2023-05-08T11:54:50.068Z,93573.25
2023-05-08T11:57:56.394Z,93580.81
2023-05-08T12:01:00.177Z,93577.03
2023-05-08T12:04:09.289Z,93590.56
2023-05-08T12:07:12.621Z,93583.84
2023-05-08T12:10:17.405Z,93588.06
2023-05-08T12:13:21.823Z,93588.16
2023-05-08T12:16:26.693Z,93588.94
2023-05-08T12:19:30.596Z,93599.13
2023-05-08T12:22:34.659Z,93607.19
2023-05-08T12:25:41.619Z,93618.06
2023-05-08T12:28:46.891Z,93603.94
2023-05-08T12:31:50.093Z,93621.56
2023-05-08T12:34:54.253Z,93630.38
2023-05-08T12:38:06.356Z,93623.03
2023-05-08T12:41:11.802Z,93625.09
2023-05-08T12:44:19.669Z,93638.63
2023-05-08T12:47:23.776Z,93634.59
2023-05-08T12:50:27.618Z,93637.31
2023-05-08T12:53:38.820Z,93635.97
2023-05-08T12:56:47.954Z,93645.41
2023-05-08T12:59:52.138Z,93646.06
2023-05-08T13:02:56.970Z,93652.13
2023-05-08T13:06:01.131Z,93645.41
2023-05-08T13:09:04.589Z,93656.16
2023-05-08T13:12:08.206Z,93658.19
2023-05-08T13:15:11.687Z,93664.16
2023-05-08T13:18:16.072Z,93670.19
2023-05-08T13:21:20.522Z,93668.81
2023-05-08T13:24:24.571Z,93673.47
2023-05-08T13:27:28.259Z,93671.38
2023-05-08T13:30:32.585Z,93682.84
2023-05-08T13:33:38.692Z,93690.25
2023-05-08T13:36:42.525Z,93685.53
2023-05-08T13:39:46.399Z,93700.31
2023-05-08T13:42:50.308Z,93705.69
2023-05-08T13:45:54.496Z,93703.00
2023-05-08T13:48:57.495Z,93705.00
2023-05-08T13:52:00.937Z,93710.34
2023-05-08T13:55:04.786Z,93709.69
2023-05-08T13:58:08.590Z,93708.28
2023-05-08T14:01:25.805Z,93710.84
2023-05-08T14:04:30.759Z,93706.69
2023-05-08T14:07:34.771Z,93707.31
2023-05-08T14:10:38.607Z,93710.63
2023-05-08T14:13:42.572Z,93717.94
2023-05-08T14:16:46.157Z,93717.19
2023-05-08T14:19:49.859Z,93727.88
2023-05-08T14:22:54.081Z,93730.47
2023-05-08T14:25:57.839Z,93723.03
2023-05-08T14:29:01.742Z,93730.47
2023-05-08T14:32:05.067Z,93727.16
2023-05-08T14:35:10.815Z,93724.47
2023-05-08T14:38:15.258Z,93733.78
2023-05-08T14:41:19.453Z,93729.69
2023-05-08T14:44:22.588Z,93730.28
2023-05-08T14:47:26.910Z,93739.06
2023-05-08T14:50:30.180Z,93739.03
2023-05-08T14:53:34.173Z,93741.00
2023-05-08T15:00:01.849Z,93750.25
2023-05-08T15:03:05.096Z,93750.88
2023-05-08T15:06:09.439Z,93744.13
2023-05-08T15:09:13.251Z,93740.75
2023-05-08T15:12:16.362Z,93755.44
2023-05-08T15:15:19.289Z,93753.47
2023-05-08T15:18:25.442Z,93757.47
2023-05-08T15:21:29.435Z,93760.69
2023-05-08T15:24:32.514Z,93769.31
2023-05-08T15:27:36.249Z,93779.94
2023-05-08T15:30:39.372Z,93783.81
2023-05-08T15:33:45.515Z,93788.34
2023-05-08T15:36:49.697Z,93782.59
2023-05-08T15:39:53.364Z,93790.97
2023-05-08T15:42:57.021Z,93787.88
2023-05-08T15:46:00.114Z,93794.38
2023-05-08T15:49:03.840Z,93796.13
2023-05-08T15:52:06.870Z,93806.13
2023-05-08T15:55:10.110Z,93804.72
2023-05-08T15:58:13.292Z,93809.94
2023-05-08T16:01:16.298Z,93804.97
2023-05-08T16:04:20.035Z,93805.09
2023-05-08T16:07:24.233Z,93803.59
2023-05-08T16:10:27.218Z,93808.91
2023-05-08T16:13:30.263Z,93808.19
2023-05-08T16:16:33.303Z,93814.34
2023-05-08T16:19:40.352Z,93811.75
2023-05-08T16:22:44.075Z,93821.16
2023-05-08T16:25:48.150Z,93824.25
2023-05-08T16:28:51.447Z,93830.97
2023-05-08T16:31:54.675Z,93833.94
2023-05-08T16:34:57.827Z,93833.22
2023-05-08T16:38:01.905Z,93839.88
2023-05-08T16:41:06.419Z,93826.56
2023-05-08T16:44:09.421Z,93819.75
2023-05-08T16:47:12.629Z,93828.78
2023-05-08T16:50:15.793Z,93816.94
2023-05-08T16:53:19.128Z,93825.16
2023-05-08T16:56:23.163Z,93826.75
2023-05-08T16:59:26.677Z,93827.41
2023-05-08T17:02:29.948Z,93826.63
2023-05-08T17:05:34.324Z,93830.56
2023-05-08T17:08:38.008Z,93836.31
2023-05-08T17:11:41.157Z,93838.69
2023-05-08T17:14:44.075Z,93836.09
2023-05-08T17:17:50.229Z,93836.72
2023-05-08T17:20:53.856Z,93841.69
2023-05-08T17:23:57.410Z,93854.88
2023-05-08T17:27:00.530Z,93844.66
2023-05-08T17:30:05.207Z,93847.69
2023-05-08T17:33:09.361Z,93849.94
2023-05-08T17:36:13.360Z,93851.88
2023-05-08T17:39:20.379Z,93843.28
2023-05-08T17:42:24.084Z,93844.50
2023-05-08T17:45:27.689Z,93849.03
2023-05-08T17:48:31.107Z,93849.72
2023-05-08T17:51:35.124Z,93851.09
2023-05-08T17:54:38.504Z,93844.78
2023-05-08T17:57:41.572Z,93848.16
2023-05-08T18:00:44.922Z,93843.34
2023-05-08T18:03:51.470Z,93839.25
2023-05-08T18:06:55.352Z,93836.44
2023-05-08T18:09:59.024Z,93840.44
2023-05-08T18:13:02.980Z,93838.31
2023-05-08T18:16:06.205Z,93839.53
2023-05-08T18:19:09.690Z,93844.41
2023-05-08T18:22:12.954Z,93825.66
2023-05-08T18:25:16.624Z,93836.94
2023-05-08T18:28:19.692Z,93838.63
2023-05-08T18:31:24.005Z,93834.88
2023-05-08T18:34:27.806Z,93834.81
2023-05-08T18:37:31.714Z,93839.28
2023-05-08T18:40:34.766Z,93842.53
2023-05-08T18:43:38.777Z,93840.28
2023-05-08T18:46:42.040Z,93842.22
2023-05-08T18:49:45.185Z,93844.63
2023-05-08T18:52:48.270Z,93838.25
2023-05-08T18:55:51.635Z,93847.50
2023-05-08T18:58:55.562Z,93844.97
2023-05-08T19:01:59.779Z,93841.28
2023-05-08T19:05:03.816Z,93842.25
2023-05-08T19:08:07.774Z,93849.03
2023-05-08T19:11:11.393Z,93848.97
2023-05-08T19:14:15.346Z,93843.50
2023-05-08T19:17:18.435Z,93839.19
2023-05-08T19:20:21.946Z,93836.41
2023-05-08T19:23:25.986Z,93843.41
2023-05-08T19:26:29.129Z,93850.34
2023-05-08T19:29:33.625Z,93841.47
2023-05-08T19:32:38.487Z,93844.06
2023-05-08T19:35:42.224Z,93846.72
2023-05-08T19:38:45.584Z,93837.84
2023-05-08T19:41:48.677Z,93850.53
2023-05-08T19:44:52.001Z,93841.94
2023-05-08T19:47:55.591Z,93849.25
2023-05-08T19:51:07.412Z,93856.16
2023-05-08T19:54:10.389Z,93842.63
2023-05-08T19:57:14.490Z,93847.94
2023-05-08T20:00:17.592Z,93848.75
2023-05-08T20:03:21.161Z,93845.97
2023-05-08T20:06:24.222Z,93848.56
2023-05-08T20:09:27.997Z,93851.22
2023-05-08T20:12:30.948Z,93857.22
2023-05-08T20:15:34.667Z,93850.19
2023-05-08T20:18:37.684Z,93863.78
2023-05-08T20:21:42.019Z,93859.50
2023-05-08T20:24:45.792Z,93858.94
2023-05-08T20:27:49.534Z,93868.44
2023-05-08T20:30:53.745Z,93865.41
2023-05-08T20:33:57.582Z,93872.41
2023-05-08T20:37:01.589Z,93862.88
2023-05-08T20:40:05.751Z,93874.75
2023-05-08T20:43:08.920Z,93877.50
2023-05-08T20:46:12.077Z,93872.78
2023-05-08T20:49:17.688Z,93871.25
2023-05-08T20:52:21.066Z,93871.50
2023-05-08T20:55:24.370Z,93869.19
2023-05-08T20:58:28.461Z,93862.16
2023-05-08T21:01:31.617Z,93868.31
2023-05-08T21:04:35.384Z,93877.75
2023-05-08T21:07:38.606Z,93881.16
2023-05-08T21:10:41.918Z,93871.31
2023-05-08T21:13:45.488Z,93885.59
2023-05-08T21:16:50.936Z,93880.38
2023-05-08T21:19:54.549Z,93878.72
2023-05-08T21:22:58.096Z,93878.22
2023-05-08T21:26:01.161Z,93877.84
2023-05-08T21:29:07.713Z,93876.25
2023-05-08T21:32:10.759Z,93886.06
2023-05-08T21:35:15.011Z,93882.34
2023-05-08T21:38:18.592Z,93877.19
2023-05-08T21:41:22.374Z,93877.13
2023-05-08T21:44:25.300Z,93882.81
2023-05-08T21:47:29.076Z,93882.03
2023-05-08T21:50:32.826Z,93881.94
2023-05-08T21:53:36.262Z,93875.47
2023-05-08T21:56:39.832Z,93874.03
2023-05-08T21:59:43.251Z,93880.56
2023-05-08T22:02:47.063Z,93884.75
2023-05-08T22:05:51.025Z,93890.41
2023-05-08T22:08:54.100Z,93877.25
2023-05-08T22:11:57.506Z,93887.31
2023-05-08T22:15:00.620Z,93882.81
2023-05-08T22:18:03.790Z,93881.44
2023-05-08T22:21:06.981Z,93883.28
2023-05-08T22:24:10.091Z,93892.16
2023-05-08T22:27:13.107Z,93897.47
2023-05-08T22:30:16.990Z,93899.22
2023-05-08T22:33:20.530Z,93902.50
2023-05-08T22:36:24.908Z,93901.50
2023-05-08T22:39:28.592Z,93901.03
2023-05-08T22:42:31.726Z,93908.91
2023-05-08T22:45:35.126Z,93911.38
2023-05-08T22:48:38.782Z,93910.69
2023-05-08T22:51:42.341Z,93917.28
2023-05-08T22:54:45.588Z,93918.66
2023-05-08T22:57:49.280Z,93921.41
2023-05-08T23:00:52.924Z,93919.41
2023-05-08T23:03:57.148Z,93923.03
2023-05-08T23:07:01.288Z,93925.31
2023-05-08T23:10:05.187Z,93914.50
2023-05-08T23:13:08.566Z,93916.97
2023-05-08T23:16:11.765Z,93915.09
2023-05-08T23:19:14.857Z,93908.66
2023-05-08T23:22:17.961Z,93912.06
2023-05-08T23:25:21.144Z,93907.75
2023-05-08T23:28:24.139Z,93916.84
2023-05-08T23:31:27.209Z,93928.25
2023-05-08T23:34:30.191Z,93927.06
2023-05-08T23:37:33.218Z,93929.59
2023-05-08T23:40:36.384Z,93931.47
2023-05-08T23:43:39.734Z,93931.97
2023-05-08T23:46:43.029Z,93937.59
2023-05-08T23:49:46.838Z,93931.53
2023-05-08T23:52:49.956Z,93932.94
2023-05-08T23:55:53.481Z,93935.19
2023-05-08T23:58:57.484Z,93937.78
